Terminal Aerodrome Forecast
Issued by NWS

Home | Current Version | Previous Version | Text Only | Print | Product List | Glossary On
Versions: 1 2 3 4 5 6 7 8 9 10 11 12 13 14 15 16 17 18 19 20 21 22 23 24 25 26 27 28
000
FTUS44 KHGX 201502 AAC
TAFIAH
TAF AMD
KIAH 201502Z 2015/2118 10017G22KT P6SM BKN010 OVC025
     FM201900 12011KT P6SM VCSH BKN035 OVC060
     FM210100 12008KT P6SM SCT030 BKN050
     FM211000 14004KT 5SM BR SCT015 BKN020
     FM211500 15009KT P6SM SCT040=

USA.gov is the U.S. government's official web portal to all federal, state and local government web resources and services.